createdAt,value
2018-09-17T00:00:10.365Z,27.80
2018-09-17T00:02:39.757Z,27.90
2018-09-17T00:05:09.170Z,27.80
2018-09-17T00:07:38.527Z,27.80
2018-09-17T00:10:08.183Z,27.80
2018-09-17T00:12:37.527Z,27.80
2018-09-17T00:15:07.040Z,27.80
2018-09-17T00:17:36.466Z,27.80
2018-09-17T00:20:05.918Z,27.80
2018-09-17T00:22:35.298Z,27.70
2018-09-17T00:25:04.749Z,27.80
2018-09-17T00:27:34.153Z,27.70
2018-09-17T00:30:03.580Z,27.70
2018-09-17T00:35:12.474Z,27.70
2018-09-17T00:37:41.922Z,27.70
2018-09-17T00:40:11.307Z,27.70
2018-09-17T00:42:40.686Z,27.80
2018-09-17T00:45:10.047Z,27.70
2018-09-17T00:47:39.413Z,27.70
2018-09-17T00:50:08.853Z,27.70
2018-09-17T00:52:38.223Z,27.70
2018-09-17T00:55:07.555Z,27.70
2018-09-17T00:57:36.940Z,27.80
2018-09-17T01:00:06.407Z,27.80
2018-09-17T01:02:35.800Z,27.80
2018-09-17T01:05:05.349Z,27.80
2018-09-17T01:07:34.822Z,27.80
2018-09-17T01:10:04.260Z,27.80
2018-09-17T01:12:33.628Z,27.80
2018-09-17T01:15:03.035Z,27.80
2018-09-17T01:17:32.362Z,27.80
2018-09-17T01:20:01.929Z,27.80
2018-09-17T01:22:31.356Z,27.80
2018-09-17T01:25:00.843Z,27.80
2018-09-17T01:27:30.221Z,27.80
2018-09-17T01:29:59.546Z,27.80
2018-09-17T01:32:28.959Z,27.80
2018-09-17T01:34:58.329Z,27.80
2018-09-17T01:37:27.763Z,27.80
2018-09-17T01:39:57.316Z,27.70
2018-09-17T01:42:26.707Z,27.80
2018-09-17T01:44:56.104Z,27.80
2018-09-17T01:47:25.532Z,27.80
2018-09-17T01:49:55.163Z,27.80
2018-09-17T01:52:24.585Z,27.70
2018-09-17T01:54:54.032Z,27.70
2018-09-17T01:57:23.510Z,27.70
2018-09-17T01:59:52.880Z,27.70
2018-09-17T02:02:22.328Z,27.70
2018-09-17T02:04:51.879Z,27.70
2018-09-17T02:07:21.286Z,27.70
2018-09-17T02:09:50.746Z,27.70
2018-09-17T02:12:20.253Z,27.70
2018-09-17T02:14:49.699Z,27.70
2018-09-17T02:17:19.085Z,27.70
2018-09-17T02:19:48.454Z,27.70
2018-09-17T02:22:17.813Z,27.70
2018-09-17T02:24:47.279Z,27.70
2018-09-17T02:27:16.772Z,27.70
2018-09-17T02:29:46.119Z,27.70
2018-09-17T02:32:15.457Z,27.70
2018-09-17T02:34:44.819Z,27.70
2018-09-17T02:37:14.208Z,27.70
2018-09-17T02:39:43.575Z,27.70
2018-09-17T02:42:12.982Z,27.60
2018-09-17T02:44:42.322Z,27.70
2018-09-17T02:47:11.727Z,27.70
2018-09-17T02:49:41.159Z,27.70
2018-09-17T02:52:10.461Z,27.70
2018-09-17T02:54:39.852Z,27.70
2018-09-17T02:57:09.241Z,27.70
2018-09-17T02:59:38.616Z,27.70
2018-09-17T03:02:07.995Z,27.70
2018-09-17T03:04:37.436Z,27.80
2018-09-17T03:07:06.894Z,27.70
2018-09-17T03:09:36.265Z,27.70
2018-09-17T03:12:05.701Z,27.70
2018-09-17T03:14:35.168Z,27.70
2018-09-17T03:17:15.000Z,27.70
2018-09-17T03:19:45.514Z,27.70
2018-09-17T03:22:15.743Z,27.70
2018-09-17T03:24:45.189Z,27.70
2018-09-17T03:27:14.566Z,27.70
2018-09-17T03:29:43.937Z,27.70
2018-09-17T03:32:13.306Z,27.70
2018-09-17T03:34:42.675Z,27.70
2018-09-17T03:37:12.092Z,27.70
2018-09-17T03:39:41.454Z,27.70
2018-09-17T03:42:10.846Z,27.70
2018-09-17T03:44:40.220Z,27.70
2018-09-17T03:47:09.615Z,27.70
2018-09-17T03:49:38.983Z,27.70
2018-09-17T03:52:08.368Z,27.70
2018-09-17T03:54:37.708Z,27.60
2018-09-17T03:57:07.060Z,27.60
2018-09-17T03:59:36.442Z,27.70
2018-09-17T04:02:05.886Z,27.70
2018-09-17T04:04:35.276Z,27.60
2018-09-17T04:07:04.675Z,27.60
2018-09-17T04:09:34.025Z,27.60
2018-09-17T04:12:03.374Z,27.60
2018-09-17T04:14:32.937Z,27.60
2018-09-17T04:17:02.247Z,27.60
2018-09-17T04:19:31.582Z,27.60
2018-09-17T04:22:00.959Z,27.60
2018-09-17T04:24:30.354Z,27.60
2018-09-17T04:26:59.710Z,27.60
2018-09-17T04:29:29.071Z,27.60
2018-09-17T04:31:58.466Z,27.60
2018-09-17T04:34:27.843Z,27.60
2018-09-17T04:36:57.257Z,27.60
2018-09-17T04:39:27.635Z,27.60
2018-09-17T04:41:57.078Z,27.70
2018-09-17T04:44:26.454Z,27.70
2018-09-17T04:46:55.898Z,27.70
2018-09-17T04:49:25.307Z,27.70
2018-09-17T04:51:54.715Z,27.70
2018-09-17T04:54:24.114Z,27.70
2018-09-17T04:56:53.533Z,27.70
2018-09-17T04:59:22.885Z,27.70
2018-09-17T05:01:52.232Z,27.70
2018-09-17T05:04:21.608Z,27.70
2018-09-17T05:06:51.396Z,27.70
2018-09-17T05:09:20.809Z,27.70
2018-09-17T05:11:50.208Z,27.70
2018-09-17T05:14:19.590Z,27.70
2018-09-17T05:16:48.978Z,27.70
2018-09-17T05:19:18.367Z,27.70
2018-09-17T05:21:47.738Z,27.70
2018-09-17T05:24:17.167Z,27.70
2018-09-17T05:26:46.725Z,27.70
2018-09-17T05:29:16.138Z,27.70
2018-09-17T05:31:45.522Z,27.70
2018-09-17T05:34:14.893Z,27.70
2018-09-17T05:36:44.283Z,27.70
2018-09-17T05:39:13.691Z,27.70
2018-09-17T05:41:43.086Z,27.70
2018-09-17T05:44:12.460Z,27.70
2018-09-17T05:46:41.862Z,27.70
2018-09-17T05:49:11.210Z,27.70
2018-09-17T05:51:40.581Z,27.70
2018-09-17T05:54:09.982Z,27.60
2018-09-17T05:56:39.372Z,27.70
2018-09-17T05:59:08.745Z,27.70
2018-09-17T06:01:38.170Z,27.70
2018-09-17T06:04:07.725Z,27.70
2018-09-17T06:06:37.091Z,27.70
2018-09-17T06:09:10.337Z,27.70
2018-09-17T06:11:39.724Z,27.70
2018-09-17T06:14:09.667Z,27.70
2018-09-17T06:16:39.092Z,27.70
2018-09-17T06:19:08.462Z,27.70
2018-09-17T06:21:37.830Z,27.70
2018-09-17T06:24:07.247Z,27.80
2018-09-17T06:26:36.682Z,27.80
2018-09-17T06:29:06.095Z,27.80
2018-09-17T06:31:35.448Z,27.70
2018-09-17T06:34:04.770Z,27.80
2018-09-17T06:36:34.207Z,27.70
2018-09-17T06:39:03.975Z,27.80
2018-09-17T06:41:33.455Z,27.80
2018-09-17T06:44:02.850Z,27.80
2018-09-17T06:46:32.248Z,27.80
2018-09-17T06:49:01.720Z,27.80
2018-09-17T06:51:36.176Z,27.90
2018-09-17T06:54:09.464Z,27.80
2018-09-17T06:56:39.261Z,27.90
2018-09-17T06:59:08.646Z,27.90
2018-09-17T07:01:38.077Z,27.90
2018-09-17T07:04:07.556Z,27.90
2018-09-17T07:06:36.960Z,27.90
2018-09-17T07:09:09.195Z,28.00
2018-09-17T07:11:38.770Z,28.00
2018-09-17T07:14:08.309Z,28.00
2018-09-17T07:16:37.929Z,28.10
2018-09-17T07:19:07.425Z,28.10
2018-09-17T07:21:36.810Z,28.20
2018-09-17T07:24:06.319Z,28.20
2018-09-17T07:26:35.842Z,28.30
2018-09-17T07:29:05.358Z,28.30
2018-09-17T07:31:34.895Z,28.30
2018-09-17T07:34:04.326Z,28.30
2018-09-17T07:36:33.752Z,28.30
2018-09-17T07:39:03.264Z,28.40
2018-09-17T07:41:32.687Z,28.30
2018-09-17T07:44:02.443Z,28.40
2018-09-17T07:46:31.859Z,28.40
2018-09-17T07:49:01.379Z,28.40
2018-09-17T07:51:30.791Z,28.40
2018-09-17T07:54:00.466Z,28.40
2018-09-17T07:56:30.310Z,28.50
2018-09-17T07:58:59.759Z,28.50
2018-09-17T08:01:29.250Z,28.50
2018-09-17T08:03:58.707Z,28.50
2018-09-17T08:06:28.031Z,28.50
2018-09-17T08:08:57.518Z,28.50
2018-09-17T08:11:26.977Z,28.50
2018-09-17T08:13:56.328Z,28.50
2018-09-17T08:16:25.712Z,28.50
2018-09-17T08:18:55.104Z,28.50
2018-09-17T08:21:24.501Z,28.50
2018-09-17T08:23:53.938Z,28.50
2018-09-17T08:26:23.341Z,28.60
2018-09-17T08:28:52.758Z,28.60
2018-09-17T08:31:22.199Z,28.60
2018-09-17T08:33:51.664Z,28.60
2018-09-17T08:36:21.004Z,28.70
2018-09-17T08:38:50.386Z,28.80
2018-09-17T08:41:19.696Z,28.90
2018-09-17T08:43:49.414Z,29.00
2018-09-17T08:46:18.874Z,29.00
2018-09-17T08:48:48.360Z,29.10
2018-09-17T08:51:17.832Z,29.10
2018-09-17T08:53:47.255Z,29.10
2018-09-17T08:56:26.768Z,29.10
2018-09-17T08:58:59.802Z,29.00
2018-09-17T09:01:34.236Z,29.00
2018-09-17T09:04:08.943Z,29.00
2018-09-17T09:06:43.397Z,29.00
2018-09-17T09:09:14.099Z,29.00
2018-09-17T09:12:51.328Z,29.10
2018-09-17T09:15:24.048Z,29.10
2018-09-17T09:17:53.477Z,29.00
2018-09-17T09:20:22.984Z,29.00
2018-09-17T09:22:52.403Z,28.90
2018-09-17T09:25:21.896Z,29.00
2018-09-17T09:27:51.330Z,29.00
2018-09-17T09:30:20.806Z,29.00
2018-09-17T09:32:50.156Z,29.00
2018-09-17T09:35:19.526Z,29.00
2018-09-17T09:37:48.951Z,29.00
2018-09-17T09:40:18.306Z,29.10
2018-09-17T09:42:47.718Z,29.00
2018-09-17T09:45:17.847Z,29.00
2018-09-17T09:47:47.857Z,28.90
2018-09-17T09:50:17.331Z,28.90
2018-09-17T09:52:46.780Z,28.90
2018-09-17T09:55:16.139Z,28.90
2018-09-17T09:57:45.543Z,28.80
2018-09-17T10:02:22.568Z,28.80
2018-09-17T10:04:52.167Z,28.80
2018-09-17T10:07:21.623Z,28.70
2018-09-17T10:09:56.088Z,28.70
2018-09-17T10:12:30.634Z,28.70
2018-09-17T10:15:05.142Z,28.70
2018-09-17T10:17:39.606Z,28.70
2018-09-17T10:20:09.100Z,28.60
2018-09-17T10:22:38.574Z,28.60
2018-09-17T10:25:08.004Z,28.60
2018-09-17T10:27:37.401Z,28.60
2018-09-17T10:30:06.965Z,28.60
2018-09-17T10:32:36.386Z,28.70
2018-09-17T10:35:05.983Z,28.70
2018-09-17T10:37:35.407Z,28.80
2018-09-17T10:40:04.885Z,29.10
2018-09-17T10:42:34.348Z,29.20
2018-09-17T10:45:03.841Z,29.50
2018-09-17T10:47:33.280Z,29.70
2018-09-17T10:50:03.732Z,29.80
2018-09-17T10:52:33.155Z,30.00
2018-09-17T10:55:02.571Z,30.20
2018-09-17T10:57:32.020Z,30.30
2018-09-17T11:00:01.462Z,30.40
2018-09-17T11:02:30.848Z,30.50
2018-09-17T11:05:00.346Z,30.60
2018-09-17T11:07:29.778Z,30.80
2018-09-17T11:09:59.221Z,30.80
2018-09-17T11:12:28.607Z,30.80
2018-09-17T11:14:58.046Z,30.70
2018-09-17T11:17:27.555Z,30.70
2018-09-17T11:19:57.013Z,30.60
2018-09-17T11:22:26.427Z,30.50
2018-09-17T11:24:55.972Z,30.50
2018-09-17T11:27:25.517Z,30.40
2018-09-17T11:29:55.130Z,30.50
2018-09-17T11:32:24.645Z,30.40
2018-09-17T11:34:54.157Z,30.30
2018-09-17T11:37:23.483Z,30.20
2018-09-17T11:39:52.901Z,30.20
2018-09-17T11:42:22.299Z,30.20
2018-09-17T11:44:51.705Z,30.20
2018-09-17T11:47:21.066Z,30.20
2018-09-17T11:49:50.410Z,30.20
2018-09-17T11:52:19.854Z,30.20
2018-09-17T11:54:49.214Z,30.30
2018-09-17T11:57:18.578Z,30.40
2018-09-17T11:59:48.005Z,30.50
2018-09-17T12:02:22.593Z,30.60
2018-09-17T12:04:57.217Z,30.60
2018-09-17T12:07:31.785Z,30.60
2018-09-17T12:10:01.230Z,30.60
2018-09-17T12:12:30.974Z,30.70
2018-09-17T12:15:00.410Z,30.80
2018-09-17T12:17:29.783Z,30.90
2018-09-17T12:19:59.131Z,30.90
2018-09-17T12:22:28.523Z,30.90
2018-09-17T12:24:57.852Z,30.80
2018-09-17T12:27:27.261Z,30.80
2018-09-17T12:29:56.781Z,30.80
2018-09-17T12:32:26.335Z,30.90
2018-09-17T12:34:55.723Z,30.90
2018-09-17T12:37:25.143Z,30.80
2018-09-17T12:39:54.686Z,30.80
2018-09-17T12:42:24.070Z,30.80
2018-09-17T12:44:54.706Z,30.70
2018-09-17T12:47:24.291Z,30.70
2018-09-17T12:49:53.680Z,30.60
2018-09-17T12:52:23.285Z,30.60
2018-09-17T12:54:52.699Z,30.60
2018-09-17T12:57:22.154Z,30.70
2018-09-17T12:59:51.535Z,30.70
2018-09-17T13:02:20.998Z,30.60
2018-09-17T13:04:50.631Z,30.70
2018-09-17T13:07:20.489Z,30.70
2018-09-17T13:09:49.815Z,30.70
2018-09-17T13:12:19.190Z,30.70
2018-09-17T13:14:48.633Z,30.80
2018-09-17T13:17:18.038Z,30.80
2018-09-17T13:19:47.483Z,30.80
2018-09-17T13:22:16.893Z,30.80
2018-09-17T13:24:46.378Z,30.80
2018-09-17T13:27:16.098Z,30.70
2018-09-17T13:29:45.449Z,30.60
2018-09-17T13:32:14.839Z,30.60
2018-09-17T13:34:44.171Z,30.60
2018-09-17T13:37:13.640Z,30.60
2018-09-17T13:39:43.153Z,30.60
2018-09-17T13:42:12.572Z,30.60
2018-09-17T13:44:42.091Z,30.60
2018-09-17T13:47:11.448Z,30.50
2018-09-17T13:49:40.899Z,30.60
2018-09-17T13:52:10.414Z,30.60
2018-09-17T13:54:39.802Z,30.60
2018-09-17T13:57:09.144Z,30.60
2018-09-17T13:59:38.525Z,30.60
2018-09-17T14:02:07.947Z,30.60
2018-09-17T14:04:37.472Z,30.70
2018-09-17T14:07:07.026Z,30.70
2018-09-17T14:09:36.473Z,30.70
2018-09-17T14:12:05.899Z,30.70
2018-09-17T14:14:35.477Z,30.70
2018-09-17T14:17:04.981Z,30.70
2018-09-17T14:19:34.401Z,30.70
2018-09-17T14:22:03.767Z,30.70
2018-09-17T14:24:33.103Z,30.70
2018-09-17T14:27:02.507Z,30.70
2018-09-17T14:29:31.889Z,30.70
2018-09-17T14:32:06.442Z,30.70
2018-09-17T14:34:35.856Z,30.70
2018-09-17T14:37:05.280Z,30.70
2018-09-17T14:39:34.707Z,30.80
2018-09-17T14:42:04.054Z,30.80
2018-09-17T14:44:33.407Z,30.70
2018-09-17T14:47:02.838Z,30.70
2018-09-17T14:49:32.455Z,30.70
2018-09-17T14:52:02.033Z,30.70
2018-09-17T14:54:31.450Z,30.60
2018-09-17T14:57:00.876Z,30.70
2018-09-17T14:59:30.410Z,30.70
2018-09-17T15:01:59.874Z,30.60
2018-09-17T15:04:29.449Z,30.60
2018-09-17T15:06:58.835Z,30.60
2018-09-17T15:09:28.262Z,30.60
2018-09-17T15:11:57.680Z,30.60
2018-09-17T15:14:27.232Z,30.60
2018-09-17T15:16:56.624Z,30.60
2018-09-17T15:19:26.067Z,30.60
2018-09-17T15:21:55.606Z,30.60
2018-09-17T15:24:24.962Z,30.50
2018-09-17T15:26:55.352Z,30.60
2018-09-17T15:29:24.740Z,30.60
2018-09-17T15:31:54.138Z,30.60
2018-09-17T15:34:23.655Z,30.60
2018-09-17T15:36:52.960Z,30.60
2018-09-17T15:39:22.391Z,30.60
2018-09-17T15:41:51.796Z,30.60
2018-09-17T15:44:21.238Z,30.50
2018-09-17T15:46:50.641Z,30.50
2018-09-17T15:49:20.079Z,30.50
2018-09-17T15:51:49.452Z,30.50
2018-09-17T15:54:18.836Z,30.40
2018-09-17T15:56:48.259Z,30.40
2018-09-17T15:59:17.636Z,30.40
2018-09-17T16:01:47.233Z,30.40
2018-09-17T16:04:16.661Z,30.30
2018-09-17T16:06:46.041Z,30.30
2018-09-17T16:09:15.362Z,30.30
2018-09-17T16:11:44.752Z,30.30
2018-09-17T16:14:14.250Z,30.30
2018-09-17T16:16:43.765Z,30.30
2018-09-17T16:19:13.343Z,30.20
2018-09-17T16:21:43.016Z,30.20
2018-09-17T16:24:12.471Z,30.10
2018-09-17T16:26:41.957Z,30.20
2018-09-17T16:29:11.462Z,30.20
2018-09-17T16:31:40.853Z,30.10
2018-09-17T16:34:10.167Z,30.10
2018-09-17T16:36:39.711Z,30.10
2018-09-17T16:39:10.386Z,30.10
2018-09-17T16:41:39.947Z,30.10
2018-09-17T16:44:09.302Z,30.10
2018-09-17T16:46:38.855Z,30.10
2018-09-17T16:49:08.186Z,30.00
2018-09-17T16:51:37.599Z,30.00
2018-09-17T16:54:07.123Z,30.00
2018-09-17T16:56:36.643Z,30.00
2018-09-17T16:59:06.186Z,29.90
2018-09-17T17:01:35.565Z,29.90
2018-09-17T17:04:04.988Z,29.90
2018-09-17T17:06:34.371Z,29.90
2018-09-17T17:09:04.339Z,29.90
2018-09-17T17:11:33.770Z,29.90
2018-09-17T17:14:03.324Z,29.90
2018-09-17T17:16:32.846Z,29.90
2018-09-17T17:19:02.310Z,29.90
2018-09-17T17:21:31.824Z,29.90
2018-09-17T17:24:01.370Z,29.90
2018-09-17T17:26:31.119Z,29.80
2018-09-17T17:29:00.826Z,29.80
2018-09-17T17:31:30.249Z,29.80
2018-09-17T17:33:59.600Z,29.80
2018-09-17T17:36:29.118Z,29.80
2018-09-17T17:38:58.608Z,29.80
2018-09-17T17:41:27.975Z,29.80
2018-09-17T17:43:57.355Z,29.80
2018-09-17T17:46:26.721Z,29.80
2018-09-17T17:48:56.071Z,29.70
2018-09-17T17:51:25.476Z,29.80
2018-09-17T17:53:54.992Z,29.80
2018-09-17T17:56:24.493Z,29.80
2018-09-17T17:58:53.940Z,29.70
2018-09-17T18:01:23.379Z,29.70
2018-09-17T18:03:52.824Z,29.70
2018-09-17T18:06:22.277Z,29.70
2018-09-17T18:08:51.828Z,29.70
2018-09-17T18:11:23.730Z,29.60
2018-09-17T18:13:53.335Z,29.60
2018-09-17T18:16:26.793Z,29.60
2018-09-17T18:18:56.225Z,29.60
2018-09-17T18:21:25.694Z,29.60
2018-09-17T18:23:55.074Z,29.60
2018-09-17T18:26:24.519Z,29.60
2018-09-17T18:28:54.024Z,29.50
2018-09-17T18:31:23.438Z,29.60
2018-09-17T18:33:53.373Z,29.50
2018-09-17T18:36:22.935Z,29.50
2018-09-17T18:38:52.484Z,29.50
2018-09-17T18:41:21.954Z,29.50
2018-09-17T18:43:51.999Z,29.50
2018-09-17T18:46:21.450Z,29.50
2018-09-17T18:48:50.990Z,29.50
2018-09-17T18:51:20.753Z,29.50
2018-09-17T18:53:50.136Z,29.50
2018-09-17T18:56:19.580Z,29.50
2018-09-17T18:58:49.020Z,29.50
2018-09-17T19:01:18.410Z,29.50
2018-09-17T19:03:48.017Z,29.40
2018-09-17T19:06:17.627Z,29.50
2018-09-17T19:08:47.065Z,29.40
2018-09-17T19:11:16.618Z,29.40
2018-09-17T19:13:52.001Z,29.40
2018-09-17T19:16:26.499Z,29.40
2018-09-17T19:18:55.900Z,29.40
2018-09-17T19:21:29.399Z,29.40
2018-09-17T19:24:02.004Z,29.40
2018-09-17T19:26:31.388Z,29.40
2018-09-17T19:29:06.005Z,29.30
2018-09-17T19:31:38.687Z,29.30
2018-09-17T19:34:08.419Z,29.20
2018-09-17T19:36:41.754Z,29.20
2018-09-17T19:39:16.361Z,29.20
2018-09-17T19:41:45.783Z,29.20
2018-09-17T19:44:15.307Z,29.20
2018-09-17T19:46:44.718Z,29.00
2018-09-17T19:49:14.171Z,29.00
2018-09-17T19:51:48.570Z,29.00
2018-09-17T19:54:18.060Z,29.00
2018-09-17T19:56:47.419Z,28.90
2018-09-17T20:00:25.627Z,29.00
2018-09-17T20:02:55.139Z,29.00
2018-09-17T20:06:30.342Z,29.00
2018-09-17T20:08:59.658Z,29.00
2018-09-17T20:11:29.010Z,29.00
2018-09-17T20:13:58.422Z,29.00
2018-09-17T20:16:29.261Z,29.10
2018-09-17T20:18:58.692Z,29.10
2018-09-17T20:21:28.088Z,29.00
2018-09-17T20:23:57.536Z,29.00
2018-09-17T20:26:26.948Z,29.00
2018-09-17T20:28:56.486Z,29.00
2018-09-17T20:31:26.872Z,29.00
2018-09-17T20:33:56.339Z,29.00
2018-09-17T20:36:25.820Z,29.00
2018-09-17T20:38:55.350Z,29.00
2018-09-17T20:41:24.730Z,29.00
2018-09-17T20:43:54.193Z,29.00
2018-09-17T20:46:23.692Z,29.00
2018-09-17T20:48:53.260Z,29.00
2018-09-17T20:51:22.668Z,28.90
2018-09-17T20:53:52.164Z,28.90
2018-09-17T20:56:21.630Z,28.90
2018-09-17T20:58:50.983Z,28.90
2018-09-17T21:01:20.441Z,28.80
2018-09-17T21:03:49.816Z,28.80
2018-09-17T21:06:19.179Z,28.80
2018-09-17T21:08:48.587Z,28.80
2018-09-17T21:11:17.900Z,28.80
2018-09-17T21:13:47.316Z,28.80
2018-09-17T21:16:16.703Z,28.80
2018-09-17T21:18:46.273Z,28.80
2018-09-17T21:21:16.807Z,28.80
2018-09-17T21:23:46.316Z,28.80
2018-09-17T21:26:15.699Z,28.80
2018-09-17T21:28:45.253Z,28.80
2018-09-17T21:31:14.618Z,28.80
2018-09-17T21:33:44.055Z,28.70
2018-09-17T21:36:13.422Z,28.70
2018-09-17T21:38:42.807Z,28.70
2018-09-17T21:41:12.209Z,28.70
2018-09-17T21:43:41.582Z,28.70
2018-09-17T21:46:11.501Z,28.70
2018-09-17T21:48:41.354Z,28.70
2018-09-17T21:51:10.756Z,28.70
2018-09-17T21:53:40.138Z,28.70
2018-09-17T21:56:09.579Z,28.70
2018-09-17T21:58:38.964Z,28.70
2018-09-17T22:01:08.349Z,28.70
2018-09-17T22:03:37.824Z,28.60
2018-09-17T22:06:07.331Z,28.70
2018-09-17T22:08:36.797Z,28.70
2018-09-17T22:11:06.160Z,28.60
2018-09-17T22:13:35.558Z,28.70
2018-09-17T22:16:05.030Z,28.60
2018-09-17T22:18:34.882Z,28.60
2018-09-17T22:21:04.242Z,28.60
2018-09-17T22:23:33.679Z,28.50
2018-09-17T22:26:03.069Z,28.50
2018-09-17T22:28:32.438Z,28.50
2018-09-17T22:31:01.823Z,28.50
2018-09-17T22:33:31.147Z,28.50
2018-09-17T22:36:00.545Z,28.50
2018-09-17T22:38:29.906Z,28.50
2018-09-17T22:40:59.299Z,28.50
2018-09-17T22:43:28.677Z,28.50
2018-09-17T22:45:58.067Z,28.40
2018-09-17T22:48:27.460Z,28.40
2018-09-17T22:50:56.891Z,28.50
2018-09-17T22:53:26.343Z,28.50
2018-09-17T22:55:55.875Z,28.40
2018-09-17T22:58:25.231Z,28.40
2018-09-17T23:00:54.655Z,28.40
2018-09-17T23:03:24.018Z,28.40
2018-09-17T23:05:53.374Z,28.40
2018-09-17T23:08:22.769Z,28.40
2018-09-17T23:10:52.112Z,28.40
2018-09-17T23:13:21.421Z,28.40
2018-09-17T23:15:50.810Z,28.40
2018-09-17T23:18:20.331Z,28.40
2018-09-17T23:20:49.690Z,28.40
2018-09-17T23:23:19.066Z,28.40
2018-09-17T23:25:48.545Z,28.40
2018-09-17T23:28:18.048Z,28.40
2018-09-17T23:30:47.450Z,28.40
2018-09-17T23:33:16.811Z,28.40
2018-09-17T23:35:46.204Z,28.40
2018-09-17T23:38:15.649Z,28.40
2018-09-17T23:40:45.101Z,28.50
2018-09-17T23:43:14.480Z,28.50
2018-09-17T23:45:43.862Z,28.50
2018-09-17T23:48:13.268Z,28.50
2018-09-17T23:50:42.613Z,28.50
2018-09-17T23:53:12.071Z,28.40
2018-09-17T23:55:41.526Z,28.40
2018-09-17T23:58:10.896Z,28.40
